createdAt,value
2022-09-14T00:01:26.238Z,97178.31
2022-09-14T00:06:31.383Z,97177.50
2022-09-14T00:11:38.604Z,97170.94
2022-09-14T00:16:47.938Z,97170.75
2022-09-14T00:21:59.320Z,97181.34
2022-09-14T00:27:02.811Z,97174.78
2022-09-14T00:32:06.819Z,97169.00
2022-09-14T00:37:12.744Z,97165.16
2022-09-14T00:42:17.979Z,97172.22
2022-09-14T00:47:21.947Z,97170.28
2022-09-14T00:52:29.863Z,97168.88
2022-09-14T00:57:44.300Z,97178.81
2022-09-14T01:02:47.678Z,97173.06
2022-09-14T01:08:05.863Z,97173.72
2022-09-14T01:13:37.534Z,97176.94
2022-09-14T01:18:48.108Z,97180.28
2022-09-14T01:24:06.640Z,97178.53
2022-09-14T01:29:34.157Z,97176.94
2022-09-14T01:35:03.478Z,97180.47
2022-09-14T01:40:18.453Z,97182.41
2022-09-14T01:45:24.395Z,97189.47
2022-09-14T01:50:32.895Z,97185.59
2022-09-14T01:55:46.315Z,97194.59
2022-09-14T02:00:51.208Z,97186.41
2022-09-14T02:06:41.163Z,97197.97
2022-09-14T02:11:45.275Z,97195.88
2022-09-14T02:16:48.895Z,97200.72
2022-09-14T02:21:53.093Z,97205.03
2022-09-14T02:26:57.634Z,97205.84
2022-09-14T02:32:12.875Z,97207.44
2022-09-14T02:37:48.637Z,97198.78
2022-09-14T02:43:15.380Z,97207.59
2022-09-14T02:48:44.249Z,97213.38
2022-09-14T02:53:54.086Z,97214.81
2022-09-14T02:58:57.912Z,97218.47
2022-09-14T03:04:02.253Z,97231.31
2022-09-14T03:09:05.662Z,97235.97
2022-09-14T03:14:11.117Z,97238.84
2022-09-14T03:19:14.775Z,97244.94
2022-09-14T03:24:17.941Z,97238.28
2022-09-14T03:29:21.419Z,97246.78
2022-09-14T03:34:25.980Z,97245.78
2022-09-14T03:39:30.429Z,97262.81
2022-09-14T03:44:38.854Z,97269.25
2022-09-14T03:49:45.672Z,97266.38
2022-09-14T03:54:48.802Z,97275.69
2022-09-14T03:59:52.167Z,97275.69
2022-09-14T04:04:55.676Z,97277.00
2022-09-14T04:09:59.052Z,97286.47
2022-09-14T04:15:02.330Z,97289.22
2022-09-14T04:20:06.873Z,97293.56
2022-09-14T04:25:10.312Z,97297.16
2022-09-14T04:30:14.325Z,97299.16
2022-09-14T04:35:17.892Z,97300.97
2022-09-14T04:40:21.421Z,97306.75
2022-09-14T04:45:25.121Z,97312.91
2022-09-14T04:50:28.614Z,97309.69
2022-09-14T04:55:38.633Z,97318.72
2022-09-14T05:00:42.011Z,97316.56
2022-09-14T05:05:45.584Z,97325.50
2022-09-14T05:10:49.602Z,97329.66
2022-09-14T05:15:53.118Z,97331.94
2022-09-14T05:21:03.062Z,97326.97
2022-09-14T05:26:08.535Z,97341.63
2022-09-14T05:31:13.462Z,97343.53
2022-09-14T05:36:17.467Z,97337.91
2022-09-14T05:41:20.784Z,97336.44
2022-09-14T05:46:24.048Z,97334.53
2022-09-14T05:51:29.092Z,97341.63
2022-09-14T05:56:32.587Z,97342.09
2022-09-14T06:01:36.027Z,97354.19
2022-09-14T06:06:39.484Z,97364.97
2022-09-14T06:11:43.225Z,97361.09
2022-09-14T06:16:46.588Z,97361.88
2022-09-14T06:21:51.507Z,97366.06
2022-09-14T06:26:57.719Z,97372.03
2022-09-14T06:32:04.785Z,97378.97
2022-09-14T06:37:08.284Z,97373.16
2022-09-14T06:42:11.837Z,97383.28
2022-09-14T06:47:15.841Z,97380.72
2022-09-14T06:52:19.246Z,97383.97
2022-09-14T06:57:22.439Z,97381.06
2022-09-14T07:02:25.975Z,97378.78
2022-09-14T07:07:29.325Z,97386.81
2022-09-14T07:12:34.180Z,97392.63
2022-09-14T07:17:46.968Z,97390.56
2022-09-14T07:22:50.661Z,97394.22
2022-09-14T07:27:54.588Z,97404.44
2022-09-14T07:32:58.019Z,97401.50
2022-09-14T07:38:01.280Z,97413.25
2022-09-14T07:43:04.705Z,97400.97
2022-09-14T07:48:07.829Z,97407.56
2022-09-14T07:53:10.971Z,97409.25
2022-09-14T07:58:14.342Z,97412.72
2022-09-14T08:03:21.799Z,97405.66
2022-09-14T08:08:34.761Z,97417.63
2022-09-14T08:13:43.833Z,97400.75
2022-09-14T08:18:48.250Z,97414.75
2022-09-14T08:23:52.192Z,97406.19
2022-09-14T08:28:56.494Z,97403.88
2022-09-14T08:34:02.517Z,97391.13
2022-09-14T08:39:08.051Z,97391.00
2022-09-14T08:44:20.511Z,97407.59
2022-09-14T08:49:31.607Z,97399.56
2022-09-14T08:54:37.779Z,97405.56
2022-09-14T09:00:05.601Z,97408.59
2022-09-14T09:05:25.538Z,97408.59
2022-09-14T09:10:30.119Z,97413.53
2022-09-14T09:15:50.316Z,97404.22
2022-09-14T09:21:04.638Z,97405.66
2022-09-14T09:26:18.005Z,97408.94
2022-09-14T09:31:33.434Z,97402.94
2022-09-14T09:36:57.737Z,97389.91
2022-09-14T09:42:08.616Z,97405.41
2022-09-14T09:47:12.648Z,97410.50
2022-09-14T09:52:17.446Z,97404.69
2022-09-14T09:57:34.641Z,97419.38
2022-09-14T10:02:41.684Z,97409.56
2022-09-14T10:07:50.382Z,97414.59
2022-09-14T10:12:57.129Z,97414.06
2022-09-14T10:18:12.595Z,97422.94
2022-09-14T10:23:18.848Z,97417.63
2022-09-14T10:28:26.785Z,97420.53
2022-09-14T10:33:31.213Z,97411.94
2022-09-14T10:39:01.835Z,97409.31
2022-09-14T10:44:29.224Z,97412.59
2022-09-14T10:49:32.577Z,97413.00
2022-09-14T10:54:44.429Z,97413.66
2022-09-14T10:59:50.755Z,97411.00
2022-09-14T11:05:10.420Z,97400.38
2022-09-14T11:10:45.143Z,97402.38
2022-09-14T11:16:13.477Z,97398.38
2022-09-14T11:21:29.612Z,97392.38
2022-09-14T11:26:57.254Z,97388.66
2022-09-14T11:32:23.386Z,97393.00
2022-09-14T11:37:40.142Z,97383.16
2022-09-14T11:43:06.603Z,97387.97
2022-09-14T11:48:42.440Z,97388.03
2022-09-14T11:53:47.412Z,97387.41
2022-09-14T11:58:52.390Z,97378.84
2022-09-14T12:03:58.787Z,97372.63
2022-09-14T12:09:18.370Z,97380.59
2022-09-14T12:14:25.039Z,97369.81
2022-09-14T12:19:28.455Z,97371.41
2022-09-14T12:24:31.772Z,97370.47
2022-09-14T12:29:35.662Z,97381.22
2022-09-14T12:34:39.557Z,97380.44
2022-09-14T12:40:32.194Z,97387.28
2022-09-14T12:45:48.434Z,97388.94
2022-09-14T12:50:53.315Z,97392.97
2022-09-14T12:56:02.889Z,97389.94
2022-09-14T13:01:39.206Z,97385.34
2022-09-14T13:06:48.640Z,97395.03
2022-09-14T13:12:08.278Z,97397.13
2022-09-14T13:17:14.657Z,97394.22
2022-09-14T13:22:24.344Z,97395.34
2022-09-14T13:27:32.436Z,97405.09
2022-09-14T13:32:41.378Z,97395.09
2022-09-14T13:37:48.279Z,97400.41
2022-09-14T13:42:53.099Z,97402.41
2022-09-14T13:47:58.192Z,97393.44
2022-09-14T13:53:04.764Z,97410.16
2022-09-14T13:58:23.554Z,97407.59
2022-09-14T14:03:47.615Z,97407.09
2022-09-14T14:09:02.310Z,97402.25
2022-09-14T14:14:19.908Z,97412.91
2022-09-14T14:19:29.923Z,97417.94
2022-09-14T14:24:33.032Z,97418.75
2022-09-14T14:29:36.460Z,97408.59
2022-09-14T14:34:40.159Z,97408.47
2022-09-14T14:39:49.398Z,97412.34
2022-09-14T14:44:52.938Z,97422.00
2022-09-14T14:49:56.163Z,97420.25
2022-09-14T14:55:01.155Z,97413.94
2022-09-14T15:00:12.592Z,97410.25
2022-09-14T15:05:16.467Z,97414.59
2022-09-14T15:10:21.610Z,97419.22
2022-09-14T15:15:26.566Z,97429.84
2022-09-14T15:20:30.079Z,97423.38
2022-09-14T15:25:35.014Z,97425.25
2022-09-14T15:30:40.993Z,97421.84
2022-09-14T15:35:44.353Z,97412.28
2022-09-14T15:40:47.803Z,97422.56
2022-09-14T15:45:51.207Z,97413.88
2022-09-14T15:50:58.084Z,97417.41
2022-09-14T15:56:10.714Z,97427.69
2022-09-14T16:01:16.353Z,97423.34
2022-09-14T16:06:19.928Z,97432.97
2022-09-14T16:11:23.704Z,97434.53
2022-09-14T16:16:28.404Z,97443.66
2022-09-14T16:21:32.638Z,97439.66
2022-09-14T16:26:38.103Z,97442.38
2022-09-14T16:31:44.502Z,97449.78
2022-09-14T16:36:50.250Z,97447.97
2022-09-14T16:41:54.282Z,97450.84
2022-09-14T16:47:00.028Z,97457.69
2022-09-14T16:52:06.487Z,97467.81
2022-09-14T16:57:10.062Z,97458.16
2022-09-14T17:02:13.918Z,97458.84
2022-09-14T17:07:18.061Z,97463.00
2022-09-14T17:12:21.645Z,97465.25
2022-09-14T17:17:26.790Z,97466.50
2022-09-14T17:22:30.715Z,97475.59
2022-09-14T17:27:34.356Z,97482.47
2022-09-14T17:32:37.759Z,97481.00
2022-09-14T17:37:40.991Z,97495.75
2022-09-14T17:42:44.296Z,97503.56
2022-09-14T17:47:48.619Z,97511.28
2022-09-14T17:52:52.200Z,97509.44
2022-09-14T17:57:58.918Z,97505.91
2022-09-14T18:03:07.932Z,97510.56
2022-09-14T18:08:11.445Z,97521.50
2022-09-14T18:13:14.905Z,97525.03
2022-09-14T18:18:18.334Z,97527.75
2022-09-14T18:23:21.758Z,97533.72
2022-09-14T18:28:25.190Z,97533.22
2022-09-14T18:33:29.374Z,97530.00
2022-09-14T18:38:33.839Z,97529.47
2022-09-14T18:43:37.854Z,97528.97
2022-09-14T18:48:42.459Z,97539.41
2022-09-14T18:53:59.736Z,97536.47
2022-09-14T18:59:05.692Z,97539.03
2022-09-14T19:04:11.666Z,97543.47
2022-09-14T19:09:15.192Z,97530.72
2022-09-14T19:14:18.825Z,97537.28
2022-09-14T19:19:22.811Z,97537.88
2022-09-14T19:24:26.116Z,97538.00
2022-09-14T19:29:29.556Z,97544.03
2022-09-14T19:34:33.660Z,97547.38
2022-09-14T19:39:37.528Z,97540.00
2022-09-14T19:44:41.002Z,97546.06
2022-09-14T19:49:44.437Z,97539.50
2022-09-14T19:54:50.925Z,97539.69
2022-09-14T19:59:56.916Z,97541.03
2022-09-14T20:05:00.320Z,97540.50
2022-09-14T20:10:04.366Z,97543.03
2022-09-14T20:15:08.484Z,97535.75
2022-09-14T20:20:12.112Z,97539.50
2022-09-14T20:25:15.655Z,97543.31
2022-09-14T20:30:19.245Z,97542.03
2022-09-14T20:35:23.167Z,97540.81
2022-09-14T20:40:26.953Z,97537.69
2022-09-14T20:45:30.299Z,97542.44
2022-09-14T20:50:33.614Z,97537.97
2022-09-14T20:55:36.867Z,97538.38
2022-09-14T21:00:40.278Z,97538.75
2022-09-14T21:05:43.594Z,97536.13
2022-09-14T21:10:47.257Z,97532.66
2022-09-14T21:15:50.754Z,97536.78
2022-09-14T21:20:54.142Z,97524.28
2022-09-14T21:25:57.550Z,97525.66
2022-09-14T21:31:08.196Z,97526.28
2022-09-14T21:36:13.057Z,97527.16
2022-09-14T21:41:16.658Z,97517.19
2022-09-14T21:46:20.188Z,97517.75
2022-09-14T21:51:28.008Z,97518.06
2022-09-14T21:56:33.575Z,97518.38
2022-09-14T22:01:37.182Z,97523.00
2022-09-14T22:06:40.580Z,97523.22
2022-09-14T22:11:44.522Z,97512.53
2022-09-14T22:16:49.132Z,97505.97
2022-09-14T22:21:53.856Z,97507.59
2022-09-14T22:26:57.515Z,97509.19
2022-09-14T22:32:01.299Z,97503.44
2022-09-14T22:37:04.759Z,97503.16
2022-09-14T22:42:08.499Z,97505.06
2022-09-14T22:47:11.678Z,97496.59
2022-09-14T22:52:14.842Z,97495.19
2022-09-14T22:57:18.098Z,97494.59
2022-09-14T23:02:21.802Z,97496.72
2022-09-14T23:07:25.299Z,97493.69
2022-09-14T23:12:28.602Z,97489.38
2022-09-14T23:17:32.252Z,97491.19
2022-09-14T23:22:36.665Z,97496.56
2022-09-14T23:27:40.068Z,97500.81
2022-09-14T23:32:43.385Z,97499.88
2022-09-14T23:37:47.004Z,97502.59
2022-09-14T23:42:50.576Z,97496.34
2022-09-14T23:47:54.233Z,97496.34
2022-09-14T23:52:57.732Z,97501.22
2022-09-14T23:58:01.039Z,97497.88
